Time;durP1;ratioP1;P1;durP2;ratioP2;P2;SDS_P1;SDS_P2;PMS_P1;PMS_P2;Temp;Humidity;BMP_temperature;BMP_pressure;BME280_temperature;BME280_humidity;BME280_pressure;Samples;Min_cycle;Max_cycle;Signal;HPM_P1;HPM_P2
2021/09/14 00:01:23;;;;;;;12.05;7.25;;;;;;;;;;4348471;33;20139;-85
2021/09/14 00:03:49;;;;;;;12.35;7.28;;;;;;;;;;4348944;33;20150;-85
2021/09/14 00:06:17;;;;;;;15.60;7.85;;;;;;;;;;4348533;33;20555;-85
2021/09/14 00:08:42;;;;;;;13.30;7.65;;;;;;;;;;4348566;33;20170;-85
2021/09/14 00:11:13;;;;;;;14.35;7.85;;;;;;;;;;4348089;33;20143;-85
2021/09/14 00:13:38;;;;;;;12.07;8.23;;;;;;;;;;4348595;33;20131;-85
2021/09/14 00:16:04;;;;;;;15.43;8.73;;;;;;;;;;4347926;33;20513;-85
2021/09/14 00:18:29;;;;;;;12.95;8.00;;;;;;;;;;4348550;33;20139;-84
2021/09/14 00:20:57;;;;;;;15.32;8.68;;;;;;;;;;4348109;33;20214;-85
2021/09/14 00:23:22;;;;;;;14.82;8.45;;;;;;;;;;4334739;33;20589;-85
2021/09/14 00:25:47;;;;;;;12.80;8.57;;;;;;;;;;4334478;33;20197;-84
2021/09/14 00:28:13;;;;;;;14.30;8.43;;;;;;;;;;4334157;33;20590;-85
2021/09/14 00:30:38;;;;;;;16.42;9.43;;;;;;;;;;4334230;33;20135;-85
2021/09/14 00:33:06;;;;;;;14.60;8.55;;;;;;;;;;4334185;33;20194;-85
2021/09/14 00:35:34;;;;;;;13.27;8.25;;;;;;;;;;4347985;33;20449;-85
2021/09/14 00:38:04;;;;;;;13.20;8.20;;;;;;;;;;4334421;33;20663;-85
2021/09/14 00:40:35;;;;;;;12.95;8.30;;;;;;;;;;4348100;33;20523;-85
2021/09/14 00:43:00;;;;;;;10.93;6.90;;;;;;;;;;4334035;33;20493;-85
2021/09/14 00:45:31;;;;;;;13.45;8.25;;;;;;;;;;4347461;33;20195;-85
2021/09/14 00:47:57;;;;;;;14.32;7.97;;;;;;;;;;4348054;33;20156;-85
2021/09/14 00:50:22;;;;;;;16.25;8.82;;;;;;;;;;4334596;33;20156;-84
2021/09/14 00:52:48;;;;;;;14.55;8.40;;;;;;;;;;4333698;33;20476;-84
2021/09/14 00:55:13;;;;;;;13.98;8.07;;;;;;;;;;4347387;33;20178;-85
2021/09/14 00:57:41;;;;;;;12.70;7.82;;;;;;;;;;4347548;33;20493;-84
2021/09/14 01:00:07;;;;;;;11.88;7.70;;;;;;;;;;4347653;33;20167;-84
2021/09/14 01:02:35;;;;;;;12.60;7.72;;;;;;;;;;4347887;33;20202;-84
2021/09/14 01:05:00;;;;;;;11.55;7.40;;;;;;;;;;4347393;33;20442;-84
2021/09/14 01:07:25;;;;;;;12.48;7.65;;;;;;;;;;4347686;33;20166;-84
2021/09/14 01:09:51;;;;;;;7.93;6.57;;;;;;;;;;4348085;33;20211;-84
2021/09/14 01:12:18;;;;;;;13.85;7.57;;;;;;;;;;4331797;33;20186;-85
2021/09/14 01:14:54;;;;;;;12.52;7.03;;;;;;;;;;4331854;33;20197;-84
2021/09/14 01:17:19;;;;;;;12.73;7.95;;;;;;;;;;4348035;33;20166;-84
2021/09/14 01:19:45;;;;;;;10.90;7.50;;;;;;;;;;4333735;33;20561;-84
2021/09/14 01:22:10;;;;;;;11.00;6.80;;;;;;;;;;4347543;33;20190;-84
2021/09/14 01:24:36;;;;;;;13.65;7.12;;;;;;;;;;4347151;33;20198;-84
2021/09/14 01:27:01;;;;;;;11.63;6.85;;;;;;;;;;4347516;33;20143;-84
2021/09/14 01:32:10;;;;;;;10.50;7.47;;;;;;;;;;4347600;33;20532;-84
2021/09/14 01:34:36;;;;;;;9.95;6.65;;;;;;;;;;4347010;33;20196;-84
2021/09/14 01:37:08;;;;;;;10.75;6.57;;;;;;;;;;4347156;33;20178;-85
2021/09/14 01:39:36;;;;;;;11.18;7.43;;;;;;;;;;4347395;33;20604;-84
2021/09/14 01:42:03;;;;;;;11.60;6.85;;;;;;;;;;4333202;33;20620;-84
2021/09/14 01:44:29;;;;;;;14.35;7.57;;;;;;;;;;4346670;33;20173;-84
2021/09/14 01:46:56;;;;;;;12.02;7.60;;;;;;;;;;4333230;33;20182;-84
2021/09/14 01:49:22;;;;;;;14.77;7.87;;;;;;;;;;4347690;33;20202;-84
2021/09/14 01:51:49;;;;;;;11.73;7.57;;;;;;;;;;4346633;33;20182;-84
2021/09/14 01:54:15;;;;;;;13.15;7.70;;;;;;;;;;4332894;33;20274;-84
2021/09/14 01:56:40;;;;;;;12.00;7.70;;;;;;;;;;4346524;33;20147;-84
2021/09/14 01:59:11;;;;;;;11.18;7.50;;;;;;;;;;4333673;33;20172;-84
2021/09/14 02:01:40;;;;;;;11.23;7.12;;;;;;;;;;4333561;33;20590;-84
2021/09/14 02:04:20;;;;;;;10.32;7.35;;;;;;;;;;4333142;33;20222;-85
2021/09/14 02:07:12;;;;;;;12.90;8.05;;;;;;;;;;4346997;33;20534;-84
2021/09/14 02:42:42;;;;;;;14.30;9.05;;;;;;;;;;4346667;33;20128;-84
2021/09/14 02:56:33;;;;;;;16.62;10.00;;;;;;;;;;4346369;33;20222;-84
2021/09/14 02:58:58;;;;;;;19.58;10.93;;;;;;;;;;4346402;33;20170;-84
2021/09/14 03:01:24;;;;;;;16.83;10.90;;;;;;;;;;4346082;33;20522;-83
2021/09/14 03:03:56;;;;;;;17.40;10.35;;;;;;;;;;4344489;33;20163;-84
2021/09/14 03:06:25;;;;;;;16.45;9.90;;;;;;;;;;4346495;33;20135;-84
2021/09/14 03:08:50;;;;;;;17.12;10.63;;;;;;;;;;4330968;33;20171;-84
2021/09/14 03:11:23;;;;;;;17.92;11.15;;;;;;;;;;4332867;33;20182;-84
2021/09/14 03:13:48;;;;;;;21.02;11.82;;;;;;;;;;4332649;33;20221;-84
2021/09/14 03:16:14;;;;;;;17.30;10.48;;;;;;;;;;4332292;33;20583;-84
2021/09/14 03:18:46;;;;;;;24.63;12.40;;;;;;;;;;4332646;33;20186;-84
2021/09/14 03:21:17;;;;;;;22.13;11.52;;;;;;;;;;4333132;33;20163;-84
2021/09/14 03:23:50;;;;;;;20.27;11.15;;;;;;;;;;4346067;33;20136;-84
2021/09/14 03:26:15;;;;;;;20.95;12.60;;;;;;;;;;4346715;33;20218;-84
2021/09/14 03:28:51;;;;;;;20.50;12.15;;;;;;;;;;4332197;33;20581;-84
2021/09/14 03:31:24;;;;;;;21.80;12.35;;;;;;;;;;4346494;33;20158;-84
2021/09/14 03:33:50;;;;;;;19.75;11.93;;;;;;;;;;4347037;33;20139;-86
2021/09/14 03:36:46;;;;;;;;;;;;;;;;;;;;;
2021/09/14 03:39:01;;;;;;;15.82;10.98;;;;;;;;;;4338147;33;20164;-86
2021/09/14 03:44:29;;;;;;;22.02;12.77;;;;;;;;;;4285961;33;20229;-85
2021/09/14 03:46:55;;;;;;;24.63;12.98;;;;;;;;;;4328904;33;20686;-85
2021/09/14 03:49:25;;;;;;;22.02;12.57;;;;;;;;;;4346058;33;20147;-85
2021/09/14 03:51:53;;;;;;;22.55;13.35;;;;;;;;;;4345837;33;20166;-85
2021/09/14 03:54:18;;;;;;;18.67;12.75;;;;;;;;;;4345267;33;20178;-86
2021/09/14 03:57:01;;;;;;;26.25;13.13;;;;;;;;;;4345452;33;20160;-85
2021/09/14 03:59:27;;;;;;;20.85;12.55;;;;;;;;;;4345914;33;20561;-85
2021/09/14 04:02:11;;;;;;;25.70;12.73;;;;;;;;;;4345460;33;20169;-85
2021/09/14 04:07:26;;;;;;;18.45;12.05;;;;;;;;;;4345502;33;20531;-84
2021/09/14 04:09:52;;;;;;;19.92;12.75;;;;;;;;;;4346022;33;20154;-84
2021/09/14 04:12:17;;;;;;;21.87;13.68;;;;;;;;;;4345574;33;20151;-85
2021/09/14 04:14:46;;;;;;;24.00;14.38;;;;;;;;;;4331753;33;20164;-85
2021/09/14 04:17:28;;;;;;;22.98;13.32;;;;;;;;;;4345382;33;20135;-85
2021/09/14 04:19:56;;;;;;;21.05;13.48;;;;;;;;;;4332090;33;20218;-84
2021/09/14 04:22:21;;;;;;;26.05;14.57;;;;;;;;;;4345136;33;20187;-85
2021/09/14 04:24:49;;;;;;;22.80;14.10;;;;;;;;;;4346157;33;20190;-85
2021/09/14 04:27:27;;;;;;;23.05;13.57;;;;;;;;;;4332023;33;20520;-85
2021/09/14 04:29:52;;;;;;;21.60;13.10;;;;;;;;;;4345142;33;20140;-85
2021/09/14 04:32:28;;;;;;;24.08;15.07;;;;;;;;;;4344915;33;20185;-85
2021/09/14 04:34:53;;;;;;;25.62;13.45;;;;;;;;;;4345625;33;20185;-84
2021/09/14 04:37:24;;;;;;;23.27;13.75;;;;;;;;;;4345778;33;20533;-84
2021/09/14 04:39:51;;;;;;;25.00;14.07;;;;;;;;;;4331377;33;20271;-85
2021/09/14 04:42:24;;;;;;;28.02;14.07;;;;;;;;;;4346343;33;20185;-84
2021/09/14 04:44:57;;;;;;;22.25;13.45;;;;;;;;;;4334156;33;20215;-85
2021/09/14 04:47:22;;;;;;;22.52;13.38;;;;;;;;;;4334610;33;20193;-83
2021/09/14 04:49:54;;;;;;;25.08;13.62;;;;;;;;;;4348430;33;20132;-84
2021/09/14 04:52:29;;;;;;;20.20;13.32;;;;;;;;;;4347738;33;20186;-85
2021/09/14 04:55:39;;;;;;;26.10;14.43;;;;;;;;;;4347571;33;20162;-84
2021/09/14 04:57:40;;;;;;;23.20;14.38;;;;;;;;;;4339620;33;20232;-84
2021/09/14 05:00:15;;;;;;;;;;;;;;;;;;;;;
2021/09/14 05:02:41;;;;;;;24.15;14.77;;;;;;;;;;4347531;33;20155;-85
2021/09/14 05:05:07;;;;;;;23.55;14.07;;;;;;;;;;4347221;33;20127;-84
2021/09/14 05:07:32;;;;;;;22.48;15.15;;;;;;;;;;4334346;33;20206;-83
2021/09/14 05:10:00;;;;;;;28.30;15.27;;;;;;;;;;4347241;33;20162;-85
2021/09/14 05:12:25;;;;;;;21.77;14.15;;;;;;;;;;4333632;33;20206;-82
2021/09/14 05:14:51;;;;;;;24.80;15.18;;;;;;;;;;4347464;33;20132;-84
2021/09/14 05:17:28;;;;;;;27.67;14.35;;;;;;;;;;4347494;33;20139;-84
2021/09/14 05:19:55;;;;;;;23.45;13.62;;;;;;;;;;4347517;33;20206;-82
2021/09/14 05:22:28;;;;;;;23.00;14.85;;;;;;;;;;4347129;33;20465;-84
2021/09/14 05:24:56;;;;;;;26.58;14.05;;;;;;;;;;4347647;33;20197;-84
2021/09/14 05:27:30;;;;;;;25.60;14.05;;;;;;;;;;4347494;33;20490;-84
2021/09/14 05:30:27;;;;;;;21.83;14.43;;;;;;;;;;4334270;33;20155;-84
2021/09/14 05:33:25;;;;;;;25.70;15.13;;;;;;;;;;4335142;33;20602;-83
2021/09/14 05:35:54;;;;;;;22.30;14.20;;;;;;;;;;4335211;33;20187;-84
2021/09/14 05:38:35;;;;;;;24.40;14.48;;;;;;;;;;4333284;33;20269;-83
2021/09/14 05:41:03;;;;;;;23.92;14.73;;;;;;;;;;4347212;33;20170;-82
2021/09/14 05:43:31;;;;;;;27.15;14.18;;;;;;;;;;4347232;33;20591;-84
2021/09/14 05:45:57;;;;;;;22.65;14.07;;;;;;;;;;4346669;33;20150;-81
2021/09/14 05:48:46;;;;;;;20.40;13.35;;;;;;;;;;4347092;33;20203;-84
2021/09/14 05:51:22;;;;;;;22.62;13.32;;;;;;;;;;4347032;33;20178;-84
2021/09/14 05:54:22;;;;;;;22.23;13.27;;;;;;;;;;4346324;33;20144;-83
2021/09/14 05:56:53;;;;;;;22.62;14.70;;;;;;;;;;4321365;33;20159;-81
2021/09/14 05:59:22;;;;;;;22.77;14.00;;;;;;;;;;4347156;33;20136;-83
2021/09/14 06:01:54;;;;;;;20.17;13.55;;;;;;;;;;4346534;33;20127;-84
2021/09/14 06:04:30;;;;;;;22.95;13.30;;;;;;;;;;4347080;33;20162;-84
2021/09/14 06:07:03;;;;;;;21.02;13.05;;;;;;;;;;4333185;33;20260;-84
2021/09/14 06:12:17;;;;;;;19.15;12.70;;;;;;;;;;4323306;33;20562;-83
2021/09/14 06:15:19;;;;;;;;;;;;;;;;;;;;;
2021/09/14 06:18:15;;;;;;;22.33;13.70;;;;;;;;;;4335498;33;20241;-83
2021/09/14 06:20:43;;;;;;;22.10;13.18;;;;;;;;;;4353726;33;20173;-84
2021/09/14 06:23:15;;;;;;;19.33;13.60;;;;;;;;;;4354562;33;20182;-83
2021/09/14 06:25:40;;;;;;;21.95;14.45;;;;;;;;;;4344251;33;20201;-87
2021/09/14 06:28:23;;;;;;;24.60;14.23;;;;;;;;;;4355309;33;20131;-87
2021/09/14 06:30:48;;;;;;;20.67;14.75;;;;;;;;;;4353408;33;20144;-84
2021/09/14 06:33:14;;;;;;;21.10;13.95;;;;;;;;;;4349665;33;20206;-84
2021/09/14 06:35:39;;;;;;;21.27;14.20;;;;;;;;;;4349411;33;20144;-85
2021/09/14 06:38:49;;;;;;;23.50;14.68;;;;;;;;;;4353516;33;20167;-83
2021/09/14 06:41:14;;;;;;;23.67;14.65;;;;;;;;;;4348802;33;20135;-83
2021/09/14 06:43:39;;;;;;;23.38;15.02;;;;;;;;;;4336501;33;20214;-86
2021/09/14 06:46:04;;;;;;;26.83;14.95;;;;;;;;;;4349954;33;20207;-83
2021/09/14 06:48:33;;;;;;;23.45;14.45;;;;;;;;;;4349018;33;20243;-84
2021/09/14 06:51:00;;;;;;;23.12;14.23;;;;;;;;;;4348576;33;20140;-83
2021/09/14 06:53:29;;;;;;;23.23;14.70;;;;;;;;;;4347322;33;20159;-83
2021/09/14 06:55:55;;;;;;;20.37;13.35;;;;;;;;;;4346679;33;20183;-85
2021/09/14 06:58:23;;;;;;;23.40;14.35;;;;;;;;;;4346568;33;20162;-83
2021/09/14 07:00:51;;;;;;;24.52;13.35;;;;;;;;;;4346413;33;20592;-84
2021/09/14 07:03:16;;;;;;;23.30;14.95;;;;;;;;;;4346651;33;20569;-84
2021/09/14 07:05:44;;;;;;;22.20;14.48;;;;;;;;;;4332450;33;20212;-84
2021/09/14 07:08:09;;;;;;;24.58;15.02;;;;;;;;;;4346363;33;20166;-84
2021/09/14 07:10:35;;;;;;;19.90;13.75;;;;;;;;;;4346738;33;20183;-85
2021/09/14 07:13:03;;;;;;;21.60;14.20;;;;;;;;;;4323662;33;20577;-83
2021/09/14 07:15:28;;;;;;;24.08;15.25;;;;;;;;;;4331998;33;20144;-84
2021/09/14 07:17:53;;;;;;;26.23;15.20;;;;;;;;;;4331873;33;20593;-83
2021/09/14 07:20:18;;;;;;;21.60;14.10;;;;;;;;;;4331158;33;20155;-85
2021/09/14 07:22:44;;;;;;;22.37;15.23;;;;;;;;;;4317689;33;20636;-85
2021/09/14 07:25:14;;;;;;;26.08;15.40;;;;;;;;;;4331002;33;20236;-83
2021/09/14 07:27:39;;;;;;;23.55;15.80;;;;;;;;;;4331755;33;20175;-85
2021/09/14 07:30:05;;;;;;;24.40;16.27;;;;;;;;;;4331526;33;20593;-82
2021/09/14 07:32:31;;;;;;;24.20;16.10;;;;;;;;;;4331331;33;20583;-84
2021/09/14 07:34:56;;;;;;;25.88;17.27;;;;;;;;;;4331020;33;20155;-84
2021/09/14 07:37:21;;;;;;;24.75;16.70;;;;;;;;;;4331289;33;20166;-83
2021/09/14 07:39:52;;;;;;;25.83;15.73;;;;;;;;;;4331099;33;20533;-85
2021/09/14 07:42:23;;;;;;;26.67;17.42;;;;;;;;;;4331654;33;20148;-84
2021/09/14 07:45:15;;;;;;;24.83;16.70;;;;;;;;;;4331867;33;20186;-84
2021/09/14 07:47:40;;;;;;;21.65;15.98;;;;;;;;;;4314366;33;20206;-84
2021/09/14 07:50:11;;;;;;;25.85;17.00;;;;;;;;;;4318016;33;20590;-84
2021/09/14 07:52:39;;;;;;;23.70;15.63;;;;;;;;;;4331054;33;20136;-84
2021/09/14 07:55:05;;;;;;;22.48;16.42;;;;;;;;;;4330241;33;20261;-83
2021/09/14 07:57:31;;;;;;;22.05;16.08;;;;;;;;;;4330298;33;20170;-83
2021/09/14 08:00:07;;;;;;;23.98;16.30;;;;;;;;;;4330524;33;20152;-86
2021/09/14 08:02:32;;;;;;;24.08;16.30;;;;;;;;;;4304889;33;20159;-84
2021/09/14 08:05:09;;;;;;;22.65;15.77;;;;;;;;;;4331353;33;20497;-83
2021/09/14 08:07:38;;;;;;;23.73;15.75;;;;;;;;;;4331351;33;20249;-84
2021/09/14 08:10:09;;;;;;;24.25;17.25;;;;;;;;;;4330868;33;20466;-83
2021/09/14 08:12:45;;;;;;;21.00;15.50;;;;;;;;;;4330650;33;20546;-84
2021/09/14 08:15:39;;;;;;;24.90;16.37;;;;;;;;;;4330955;33;20155;-83
2021/09/14 08:18:04;;;;;;;23.12;16.37;;;;;;;;;;4298544;33;20190;-83
2021/09/14 08:20:30;;;;;;;23.02;16.90;;;;;;;;;;4333314;33;20253;-83
2021/09/14 08:22:55;;;;;;;22.13;16.42;;;;;;;;;;4320246;33;20518;-84
2021/09/14 08:25:23;;;;;;;23.50;16.08;;;;;;;;;;4333862;33;20152;-83
2021/09/14 08:27:51;;;;;;;23.62;16.80;;;;;;;;;;4333042;33;20522;-84
2021/09/14 08:30:17;;;;;;;20.52;15.95;;;;;;;;;;4333605;33;20136;-83
2021/09/14 08:32:42;;;;;;;23.50;16.73;;;;;;;;;;4333306;33;20144;-84
2021/09/14 08:35:08;;;;;;;22.83;17.08;;;;;;;;;;4320164;33;20175;-84
2021/09/14 08:37:33;;;;;;;21.80;16.00;;;;;;;;;;4333540;33;20136;-83
2021/09/14 08:40:10;;;;;;;21.58;16.10;;;;;;;;;;4319756;33;20148;-84
2021/09/14 08:42:37;;;;;;;25.50;16.48;;;;;;;;;;4333153;33;20205;-84
2021/09/14 08:45:06;;;;;;;24.08;18.02;;;;;;;;;;4319697;33;20552;-85
2021/09/14 08:47:42;;;;;;;25.40;18.08;;;;;;;;;;4332932;33;20144;-84
2021/09/14 08:50:09;;;;;;;25.85;17.45;;;;;;;;;;4333919;33;20135;-83
2021/09/14 08:52:52;;;;;;;23.85;17.00;;;;;;;;;;4333120;33;20194;-84
2021/09/14 08:55:23;;;;;;;22.85;16.17;;;;;;;;;;4333094;33;20234;-84
2021/09/14 08:57:49;;;;;;;22.20;17.12;;;;;;;;;;4333011;33;20585;-84
2021/09/14 09:00:15;;;;;;;21.80;17.23;;;;;;;;;;4333069;33;20145;-83
2021/09/14 09:02:43;;;;;;;24.10;16.80;;;;;;;;;;4332989;33;20555;-83
2021/09/14 09:05:27;;;;;;;20.90;16.42;;;;;;;;;;4333274;33;20541;-83
2021/09/14 09:08:14;;;;;;;22.52;16.62;;;;;;;;;;4332923;33;20519;-83
2021/09/14 09:10:48;;;;;;;22.08;16.25;;;;;;;;;;4333225;33;20625;-83
2021/09/14 09:13:15;;;;;;;20.15;16.10;;;;;;;;;;4319970;33;20199;-83
2021/09/14 09:15:41;;;;;;;24.40;17.75;;;;;;;;;;4333122;33;20155;-83
2021/09/14 09:18:11;;;;;;;22.15;17.23;;;;;;;;;;4333066;33;20227;-82
2021/09/14 09:20:37;;;;;;;19.48;15.40;;;;;;;;;;4332853;33;20255;-83
2021/09/14 09:23:13;;;;;;;19.45;15.98;;;;;;;;;;4332817;33;20140;-85
2021/09/14 09:25:39;;;;;;;18.92;15.65;;;;;;;;;;4333253;33;20210;-85
2021/09/14 09:28:10;;;;;;;22.70;16.73;;;;;;;;;;4332650;33;20159;-84
2021/09/14 09:30:37;;;;;;;23.33;15.90;;;;;;;;;;4332471;33;20206;-83
2021/09/14 09:33:03;;;;;;;18.90;15.27;;;;;;;;;;4332759;33;20140;-84
2021/09/14 09:35:32;;;;;;;21.75;16.15;;;;;;;;;;4332701;33;20143;-83
2021/09/14 09:37:58;;;;;;;19.67;15.23;;;;;;;;;;4332625;33;20541;-85
2021/09/14 09:40:30;;;;;;;22.75;17.05;;;;;;;;;;4332402;33;20156;-82
2021/09/14 09:43:13;;;;;;;20.58;16.60;;;;;;;;;;4332619;33;20251;-83
2021/09/14 09:45:47;;;;;;;18.75;15.77;;;;;;;;;;4332542;33;20144;-83
2021/09/14 09:48:14;;;;;;;22.23;16.30;;;;;;;;;;4318999;33;20205;-84
2021/09/14 09:50:43;;;;;;;22.52;15.95;;;;;;;;;;4333228;33;20196;-84
2021/09/14 09:53:09;;;;;;;23.10;18.23;;;;;;;;;;4333354;33;20136;-84
2021/09/14 09:55:34;;;;;;;20.88;16.80;;;;;;;;;;4333330;33;20275;-83
2021/09/14 09:58:02;;;;;;;20.23;15.70;;;;;;;;;;4333006;33;20315;-84
2021/09/14 10:00:28;;;;;;;22.85;16.48;;;;;;;;;;4320005;33;20567;-84
2021/09/14 10:03:00;;;;;;;21.65;16.02;;;;;;;;;;4332777;33;20163;-84
2021/09/14 10:05:27;;;;;;;21.85;15.80;;;;;;;;;;4333441;33;20175;-85
2021/09/14 10:07:53;;;;;;;22.87;15.70;;;;;;;;;;4332426;33;20144;-83
2021/09/14 10:10:31;;;;;;;20.42;15.45;;;;;;;;;;4332408;33;20451;-83
2021/09/14 10:13:35;;;;;;;23.08;16.30;;;;;;;;;;4332477;33;20131;-84
2021/09/14 10:16:00;;;;;;;21.12;15.48;;;;;;;;;;4315117;33;20646;-83
2021/09/14 10:18:29;;;;;;;20.45;14.48;;;;;;;;;;4331770;33;20207;-81
2021/09/14 10:21:38;;;;;;;17.85;14.95;;;;;;;;;;4318482;33;20562;-85
2021/09/14 10:24:02;;;;;;;17.33;13.57;;;;;;;;;;4331832;33;20175;-82
2021/09/14 10:26:34;;;;;;;17.95;14.18;;;;;;;;;;4332546;33;20530;-84
2021/09/14 10:29:13;;;;;;;17.98;14.10;;;;;;;;;;4331720;33;20207;-84
2021/09/14 10:31:41;;;;;;;18.58;13.65;;;;;;;;;;4331825;33;20151;-83
2021/09/14 10:34:18;;;;;;;16.98;13.65;;;;;;;;;;4331178;33;20182;-84
2021/09/14 10:36:57;;;;;;;19.87;14.52;;;;;;;;;;4331662;33;20143;-82
2021/09/14 10:39:24;;;;;;;17.73;13.38;;;;;;;;;;4331630;33;20132;-83
2021/09/14 10:41:55;;;;;;;17.87;13.65;;;;;;;;;;4317960;33;20658;-83
2021/09/14 10:44:25;;;;;;;16.83;14.25;;;;;;;;;;4331687;33;20136;-82
2021/09/14 10:47:02;;;;;;;20.27;15.48;;;;;;;;;;4331280;33;20166;-82
2021/09/14 10:49:41;;;;;;;16.85;14.45;;;;;;;;;;4318248;33;20538;-84
2021/09/14 10:52:15;;;;;;;21.92;15.02;;;;;;;;;;4332152;33;20133;-83
2021/09/14 10:54:49;;;;;;;19.33;14.35;;;;;;;;;;4325236;33;20167;-85
2021/09/14 10:57:29;;;;;;;23.00;15.70;;;;;;;;;;4330670;33;20151;-84
2021/09/14 11:00:34;;;;;;;;;;;;;;;;;;;;;
2021/09/14 11:03:39;;;;;;;16.48;13.30;;;;;;;;;;4331288;33;20554;-84
2021/09/14 11:06:26;;;;;;;14.73;12.45;;;;;;;;;;4294206;33;20183;-84
2021/09/14 11:08:56;;;;;;;15.82;12.43;;;;;;;;;;4331156;33;20135;-85
2021/09/14 11:11:24;;;;;;;16.37;11.60;;;;;;;;;;4330937;33;20179;-83
2021/09/14 11:13:52;;;;;;;13.82;11.25;;;;;;;;;;4332024;33;20203;-85
2021/09/14 11:16:20;;;;;;;13.50;10.98;;;;;;;;;;4331379;33;20143;-83
2021/09/14 11:19:21;;;;;;;;;;;;;;;;;;;;;
2021/09/14 11:21:54;;;;;;;13.82;10.88;;;;;;;;;;4331791;33;20140;-83
2021/09/14 11:24:20;;;;;;;11.70;9.10;;;;;;;;;;4331330;33;20194;-83
2021/09/14 11:26:57;;;;;;;13.48;12.18;;;;;;;;;;4331309;33;20530;-84
2021/09/14 11:29:22;;;;;;;14.38;11.52;;;;;;;;;;4331648;33;20178;-84
2021/09/14 11:32:03;;;;;;;13.15;10.95;;;;;;;;;;4330660;33;20140;-84
2021/09/14 11:34:29;;;;;;;12.60;9.27;;;;;;;;;;4331044;33;20186;-83
2021/09/14 11:37:01;;;;;;;12.60;11.30;;;;;;;;;;4317723;33;20220;-83
2021/09/14 11:39:34;;;;;;;11.82;9.70;;;;;;;;;;4317417;33;20166;-84
2021/09/14 11:42:00;;;;;;;12.95;10.18;;;;;;;;;;4330970;33;20571;-83
2021/09/14 11:44:33;;;;;;;10.95;9.55;;;;;;;;;;4330562;33;20171;-85
2021/09/14 11:47:08;;;;;;;12.25;9.25;;;;;;;;;;4331121;33;20152;-84
2021/09/14 11:49:36;;;;;;;14.30;11.40;;;;;;;;;;4330434;33;20178;-84
2021/09/14 11:52:02;;;;;;;14.20;10.73;;;;;;;;;;4332634;33;20479;-82
2021/09/14 11:54:39;;;;;;;10.38;8.32;;;;;;;;;;4333679;33;20594;-83
2021/09/14 11:57:07;;;;;;;11.95;9.90;;;;;;;;;;4348417;33;20143;-82
2021/09/14 11:59:37;;;;;;;11.90;10.10;;;;;;;;;;4348604;33;20522;-83
2021/09/14 12:02:06;;;;;;;12.63;9.43;;;;;;;;;;4335144;33;20601;-84
2021/09/14 12:04:33;;;;;;;13.35;10.45;;;;;;;;;;4334829;33;20160;-83
2021/09/14 12:07:15;;;;;;;12.73;9.93;;;;;;;;;;4348949;33;20131;-84
2021/09/14 12:09:44;;;;;;;11.23;8.63;;;;;;;;;;4334760;33;20168;-81
2021/09/14 12:12:11;;;;;;;11.27;9.23;;;;;;;;;;4347683;33;20206;-85
2021/09/14 12:14:36;;;;;;;9.38;8.35;;;;;;;;;;4334260;33;20175;-83
2021/09/14 12:17:07;;;;;;;9.63;8.63;;;;;;;;;;4347819;33;20139;-84
2021/09/14 12:19:33;;;;;;;10.05;8.13;;;;;;;;;;4348639;33;20223;-83
2021/09/14 12:21:59;;;;;;;12.00;10.00;;;;;;;;;;4348034;33;20173;-84
2021/09/14 12:24:24;;;;;;;11.65;9.25;;;;;;;;;;4347888;33;20148;-84
2021/09/14 12:26:55;;;;;;;11.57;9.57;;;;;;;;;;4347778;33;20158;-83
2021/09/14 12:29:21;;;;;;;11.65;9.05;;;;;;;;;;4348311;33;20236;-81
2021/09/14 12:31:46;;;;;;;12.98;10.35;;;;;;;;;;4348355;33;20218;-84
2021/09/14 12:34:19;;;;;;;12.27;10.00;;;;;;;;;;4334779;33;20159;-83
2021/09/14 12:36:57;;;;;;;13.40;9.88;;;;;;;;;;4347629;33;20151;-84
2021/09/14 12:39:29;;;;;;;11.05;8.73;;;;;;;;;;4348228;33;20469;-84
2021/09/14 12:42:05;;;;;;;12.95;9.88;;;;;;;;;;4348021;33;20584;-85
2021/09/14 12:44:30;;;;;;;11.05;9.35;;;;;;;;;;4348076;33;20182;-83
2021/09/14 12:46:59;;;;;;;13.02;9.63;;;;;;;;;;4347527;33;20170;-83
2021/09/14 12:49:25;;;;;;;13.90;10.68;;;;;;;;;;4347333;33;20499;-83
2021/09/14 12:51:50;;;;;;;12.25;10.05;;;;;;;;;;4347328;33;20144;-83
2021/09/14 12:54:18;;;;;;;11.30;9.48;;;;;;;;;;4346840;33;20160;-83
2021/09/14 12:56:44;;;;;;;12.20;10.57;;;;;;;;;;4347952;33;20203;-82
2021/09/14 12:59:12;;;;;;;12.93;10.32;;;;;;;;;;4347462;33;20166;-84
2021/09/14 13:01:37;;;;;;;13.52;11.18;;;;;;;;;;4347838;33;20163;-85
2021/09/14 13:04:03;;;;;;;18.23;13.57;;;;;;;;;;4347084;33;20186;-84
2021/09/14 13:06:33;;;;;;;16.48;10.93;;;;;;;;;;4347647;33;20663;-84
2021/09/14 13:09:07;;;;;;;15.52;12.27;;;;;;;;;;4347536;33;20166;-83
2021/09/14 13:11:32;;;;;;;17.17;12.50;;;;;;;;;;4347337;33;20218;-83
2021/09/14 13:16:41;;;;;;;15.85;11.88;;;;;;;;;;4349586;33;20186;-84
2021/09/14 13:19:28;;;;;;;13.55;11.35;;;;;;;;;;4351858;33;20206;-84
2021/09/14 13:22:01;;;;;;;14.82;11.98;;;;;;;;;;4350873;33;20140;-84
2021/09/14 13:24:34;;;;;;;15.32;12.27;;;;;;;;;;4352655;33;20135;-83
2021/09/14 13:27:09;;;;;;;15.52;11.77;;;;;;;;;;4353895;33;20159;-83
2021/09/14 13:29:42;;;;;;;16.10;11.30;;;;;;;;;;4338379;33;20167;-83
2021/09/14 13:32:07;;;;;;;18.52;12.52;;;;;;;;;;4347713;33;20123;-83
2021/09/14 13:34:33;;;;;;;14.30;11.90;;;;;;;;;;4347403;33;20202;-82
2021/09/14 13:36:58;;;;;;;16.62;12.35;;;;;;;;;;4347164;33;20170;-84
2021/09/14 13:39:23;;;;;;;16.50;13.18;;;;;;;;;;4347414;33;20617;-83
2021/09/14 13:41:51;;;;;;;15.43;12.82;;;;;;;;;;4347214;33;20431;-76
2021/09/14 13:46:55;;;;;;;16.40;13.02;;;;;;;;;;4346834;33;20202;-81
2021/09/14 13:49:20;;;;;;;16.08;14.02;;;;;;;;;;4346954;33;20186;-84
2021/09/14 13:51:45;;;;;;;18.27;13.85;;;;;;;;;;4346786;33;20159;-83
2021/09/14 13:54:11;;;;;;;15.60;13.43;;;;;;;;;;4333185;33;20187;-82
2021/09/14 13:56:36;;;;;;;15.75;13.25;;;;;;;;;;4347310;33;20158;-84
2021/09/14 13:59:01;;;;;;;17.58;14.07;;;;;;;;;;4346963;33;20150;-84
2021/09/14 14:01:27;;;;;;;22.30;15.15;;;;;;;;;;4346519;33;20154;-84
2021/09/14 14:03:53;;;;;;;22.13;14.82;;;;;;;;;;4346599;33;20154;-84
2021/09/14 14:06:18;;;;;;;18.25;15.95;;;;;;;;;;4346404;33;20132;-83
2021/09/14 14:08:44;;;;;;;18.45;15.10;;;;;;;;;;4332673;33;20156;-83
2021/09/14 14:11:09;;;;;;;20.52;14.85;;;;;;;;;;4332688;33;20234;-84
2021/09/14 14:13:34;;;;;;;18.20;15.15;;;;;;;;;;4346540;33;20210;-81
2021/09/14 14:16:03;;;;;;;20.98;15.20;;;;;;;;;;4345517;33;20210;-84
2021/09/14 14:18:30;;;;;;;21.58;15.95;;;;;;;;;;4346141;33;20139;-83
2021/09/14 14:20:56;;;;;;;17.35;14.52;;;;;;;;;;4346549;33;20209;-84
2021/09/14 14:23:21;;;;;;;19.17;15.68;;;;;;;;;;4345962;33;20136;-83
2021/09/14 14:25:46;;;;;;;21.83;15.83;;;;;;;;;;4346563;33;20409;-83
2021/09/14 14:28:11;;;;;;;18.70;15.90;;;;;;;;;;4346063;33;20228;-84
2021/09/14 14:30:39;;;;;;;16.80;14.68;;;;;;;;;;4346313;33;20564;-83
2021/09/14 14:33:05;;;;;;;24.52;16.75;;;;;;;;;;4346262;33;20159;-83
2021/09/14 14:35:30;;;;;;;17.48;15.57;;;;;;;;;;4332151;33;20214;-83
2021/09/14 14:37:55;;;;;;;18.75;15.35;;;;;;;;;;4345513;33;20617;-79
2021/09/14 14:40:21;;;;;;;18.33;15.45;;;;;;;;;;4346008;33;20128;-84
2021/09/14 14:42:50;;;;;;;19.27;15.43;;;;;;;;;;4346245;33;20560;-83
2021/09/14 14:45:16;;;;;;;20.17;15.52;;;;;;;;;;4345914;33;20159;-82
2021/09/14 14:47:46;;;;;;;20.33;15.90;;;;;;;;;;4345853;33;20194;-83
2021/09/14 14:50:11;;;;;;;16.92;14.27;;;;;;;;;;4345688;33;20190;-85
2021/09/14 14:52:42;;;;;;;19.02;15.02;;;;;;;;;;4346213;33;20446;-85
2021/09/14 14:55:07;;;;;;;19.83;15.90;;;;;;;;;;4332524;33;20202;-83
2021/09/14 14:57:32;;;;;;;18.25;14.87;;;;;;;;;;4332307;33;20160;-83
2021/09/14 14:59:57;;;;;;;18.27;15.60;;;;;;;;;;4332545;33;20160;-83
2021/09/14 15:02:23;;;;;;;19.08;15.40;;;;;;;;;;4345755;33;20563;-84
2021/09/14 15:04:48;;;;;;;17.85;15.95;;;;;;;;;;4346201;33;20481;-82
2021/09/14 15:07:13;;;;;;;17.43;14.80;;;;;;;;;;4332118;33;20585;-83
2021/09/14 15:09:38;;;;;;;20.05;14.68;;;;;;;;;;4332098;33;20310;-82
2021/09/14 15:12:10;;;;;;;20.40;15.23;;;;;;;;;;4345978;33;20127;-81
2021/09/14 15:14:35;;;;;;;24.10;16.02;;;;;;;;;;4345581;33;20230;-83
2021/09/14 15:17:01;;;;;;;19.10;15.15;;;;;;;;;;4345984;33;20488;-82
2021/09/14 15:19:26;;;;;;;17.83;15.32;;;;;;;;;;4345728;33;20135;-83
2021/09/14 15:21:51;;;;;;;19.57;15.63;;;;;;;;;;4345531;33;20477;-82
2021/09/14 15:24:17;;;;;;;19.65;15.60;;;;;;;;;;4346349;33;20228;-84
2021/09/14 15:26:43;;;;;;;22.08;16.50;;;;;;;;;;4345875;33;20158;-83
2021/09/14 15:29:08;;;;;;;17.37;14.30;;;;;;;;;;4346003;33;20510;-84
2021/09/14 15:31:33;;;;;;;19.17;15.13;;;;;;;;;;4346094;33;20139;-81
2021/09/14 15:34:08;;;;;;;17.70;15.70;;;;;;;;;;4331938;33;20164;-83
2021/09/14 15:36:33;;;;;;;18.30;15.30;;;;;;;;;;4345862;33;20218;-83
2021/09/14 15:38:58;;;;;;;21.70;16.80;;;;;;;;;;4345214;33;20162;-84
2021/09/14 15:41:25;;;;;;;23.90;17.70;;;;;;;;;;4345401;33;20444;-83
2021/09/14 15:43:50;;;;;;;22.15;15.93;;;;;;;;;;4345227;33;20135;-85